createdAt,value
2022-09-10T00:01:22.102Z,96652.72
2022-09-10T00:03:50.115Z,96650.06
2022-09-10T00:06:18.764Z,96659.00
2022-09-10T00:08:46.573Z,96646.78
2022-09-10T00:11:15.095Z,96659.56
2022-09-10T00:13:42.661Z,96654.28
2022-09-10T00:16:11.829Z,96647.34
2022-09-10T00:18:40.395Z,96648.53
2022-09-10T00:21:10.340Z,96650.38
2022-09-10T00:23:37.358Z,96651.63
2022-09-10T00:26:16.960Z,96656.84
2022-09-10T00:28:44.055Z,96656.63
2022-09-10T00:31:11.341Z,96655.81
2022-09-10T00:33:37.909Z,96656.25
2022-09-10T00:36:06.012Z,96647.69
2022-09-10T00:38:32.740Z,96648.72
2022-09-10T00:41:04.899Z,96659.72
2022-09-10T00:43:51.180Z,96649.72
2022-09-10T00:46:43.586Z,96653.75
2022-09-10T00:49:17.784Z,96650.53
2022-09-10T00:51:44.611Z,96648.84
2022-09-10T00:54:11.873Z,96645.06
2022-09-10T00:56:39.154Z,96647.22
2022-09-10T00:59:08.231Z,96638.69
2022-09-10T01:01:35.563Z,96644.84
2022-09-10T01:04:03.807Z,96641.59
2022-09-10T01:06:30.449Z,96640.00
2022-09-10T01:08:57.303Z,96637.34
2022-09-10T01:11:42.520Z,96630.28
2022-09-10T01:14:28.039Z,96625.50
2022-09-10T01:17:00.066Z,96626.47
2022-09-10T01:19:48.185Z,96638.53
2022-09-10T01:22:14.656Z,96623.44
2022-09-10T01:24:54.686Z,96632.44
2022-09-10T01:27:39.594Z,96626.78
2022-09-10T01:30:14.697Z,96629.63
2022-09-10T01:32:53.256Z,96623.69
2022-09-10T01:35:24.093Z,96627.59
2022-09-10T01:37:57.487Z,96624.13
2022-09-10T01:40:29.733Z,96629.97
2022-09-10T01:43:02.541Z,96633.66
2022-09-10T01:45:29.867Z,96624.31
2022-09-10T01:48:10.823Z,96634.69
2022-09-10T01:50:46.338Z,96632.03
2022-09-10T01:53:22.887Z,96630.78
2022-09-10T01:56:09.622Z,96620.94
2022-09-10T01:58:38.895Z,96630.88
2022-09-10T02:01:14.779Z,96635.59
2022-09-10T02:03:43.730Z,96619.53
2022-09-10T02:06:14.305Z,96617.09
2022-09-10T02:08:41.711Z,96626.69
2022-09-10T02:11:11.813Z,96618.06
2022-09-10T02:13:38.852Z,96623.59
2022-09-10T02:16:08.471Z,96621.47
2022-09-10T02:18:35.328Z,96618.22
2022-09-10T02:21:03.217Z,96625.16
2022-09-10T02:23:40.920Z,96622.78
2022-09-10T02:26:07.467Z,96627.28
2022-09-10T02:28:34.147Z,96633.00
2022-09-10T02:31:01.694Z,96628.75
2022-09-10T02:33:28.584Z,96633.44
2022-09-10T02:35:55.195Z,96633.22
2022-09-10T02:38:21.944Z,96627.91
2022-09-10T02:40:51.855Z,96625.66
2022-09-10T02:43:18.451Z,96628.91
2022-09-10T02:45:45.106Z,96626.06
2022-09-10T02:48:11.719Z,96620.34
2022-09-10T02:50:39.067Z,96620.38
2022-09-10T02:53:06.981Z,96624.84
2022-09-10T02:55:33.551Z,96618.75
2022-09-10T02:58:00.104Z,96624.03
2022-09-10T03:00:26.645Z,96606.16
2022-09-10T03:02:54.319Z,96624.84
2022-09-10T03:05:20.891Z,96629.13
2022-09-10T03:07:47.962Z,96622.81
2022-09-10T03:10:14.489Z,96610.63
2022-09-10T03:12:41.113Z,96614.97
2022-09-10T03:15:08.203Z,96621.06
2022-09-10T03:17:34.741Z,96620.47
2022-09-10T03:20:01.267Z,96607.81
2022-09-10T03:22:28.427Z,96620.06
2022-09-10T03:24:55.101Z,96618.03
2022-09-10T03:27:22.893Z,96610.72
2022-09-10T03:29:49.480Z,96623.53
2022-09-10T03:32:16.031Z,96608.66
2022-09-10T03:34:42.981Z,96613.56
2022-09-10T03:37:09.565Z,96615.19
2022-09-10T03:39:36.145Z,96612.75
2022-09-10T03:42:05.183Z,96611.06
2022-09-10T03:44:33.532Z,96606.00
2022-09-10T03:47:00.801Z,96618.81
2022-09-10T03:49:28.024Z,96609.44
2022-09-10T03:51:54.708Z,96615.19
2022-09-10T03:54:21.399Z,96615.19
2022-09-10T03:56:47.948Z,96614.59
2022-09-10T03:59:14.921Z,96613.78
2022-09-10T04:01:41.643Z,96610.72
2022-09-10T04:04:08.485Z,96615.41
2022-09-10T04:06:35.542Z,96607.03
2022-09-10T04:09:02.255Z,96619.09
2022-09-10T04:11:28.923Z,96624.81
2022-09-10T04:13:56.391Z,96618.50
2022-09-10T04:16:23.480Z,96622.94
2022-09-10T04:18:51.135Z,96612.97
2022-09-10T04:21:17.691Z,96625.19
2022-09-10T04:23:45.661Z,96617.69
2022-09-10T04:26:14.686Z,96626.22
2022-09-10T04:28:41.781Z,96622.97
2022-09-10T04:31:08.446Z,96625.84
2022-09-10T04:33:35.649Z,96623.78
2022-09-10T04:36:02.855Z,96631.72
2022-09-10T04:38:32.795Z,96624.44
2022-09-10T04:41:03.064Z,96632.75
2022-09-10T04:43:29.596Z,96629.09
2022-09-10T04:45:56.491Z,96628.28
2022-09-10T04:48:24.138Z,96633.94
2022-09-10T04:51:14.661Z,96629.44
2022-09-10T04:53:40.965Z,96639.19
2022-09-10T04:56:08.520Z,96636.38
2022-09-10T04:58:38.678Z,96636.38
2022-09-10T05:01:06.129Z,96642.09
2022-09-10T05:03:32.805Z,96636.47
2022-09-10T05:05:59.324Z,96634.81
2022-09-10T05:08:25.908Z,96633.63
2022-09-10T05:10:52.540Z,96641.16
2022-09-10T05:13:19.191Z,96639.34
2022-09-10T05:15:46.085Z,96636.69
2022-09-10T05:18:12.781Z,96636.69
2022-09-10T05:20:39.313Z,96642.81
2022-09-10T05:23:05.850Z,96640.97
2022-09-10T05:25:34.551Z,96639.94
2022-09-10T05:28:01.586Z,96644.63
2022-09-10T05:30:32.834Z,96642.00
2022-09-10T05:33:03.245Z,96645.81
2022-09-10T05:35:30.448Z,96642.59
2022-09-10T05:37:57.640Z,96650.75
2022-09-10T05:40:25.519Z,96646.66
2022-09-10T05:42:52.980Z,96644.63
2022-09-10T05:45:20.312Z,96651.94
2022-09-10T05:47:47.490Z,96647.44
2022-09-10T05:50:14.615Z,96641.94
2022-09-10T05:52:41.268Z,96652.38
2022-09-10T05:55:08.288Z,96648.06
2022-09-10T05:57:35.498Z,96648.66
2022-09-10T06:00:06.280Z,96659.25
2022-09-10T06:02:33.533Z,96657.78
2022-09-10T06:05:00.713Z,96661.63
2022-09-10T06:07:28.378Z,96661.22
2022-09-10T06:09:55.111Z,96660.78
2022-09-10T06:12:21.763Z,96658.31
2022-09-10T06:14:49.656Z,96659.78
2022-09-10T06:17:19.085Z,96666.66
2022-09-10T06:19:46.492Z,96664.44
2022-09-10T06:22:13.638Z,96672.91
2022-09-10T06:24:40.229Z,96678.94
2022-09-10T06:27:06.904Z,96680.19
2022-09-10T06:29:36.085Z,96682.97
2022-09-10T06:32:03.263Z,96689.09
2022-09-10T06:34:29.768Z,96691.44
2022-09-10T06:36:58.233Z,96690.19
2022-09-10T06:39:25.024Z,96695.94
2022-09-10T06:41:53.276Z,96699.63
2022-09-10T06:44:22.310Z,96689.53
2022-09-10T06:47:39.385Z,96699.09
2022-09-10T06:49:36.513Z,96700.97
2022-09-10T06:52:03.110Z,96698.78
2022-09-10T06:54:29.652Z,96693.31
2022-09-10T06:56:56.212Z,96691.56
2022-09-10T06:59:22.717Z,96694.41
2022-09-10T07:01:49.478Z,96695.41
2022-09-10T07:04:16.065Z,96706.16
2022-09-10T07:06:42.815Z,96696.97
2022-09-10T07:09:09.371Z,96700.38
2022-09-10T07:11:40.667Z,96693.53
2022-09-10T07:14:10.968Z,96694.47
2022-09-10T07:16:41.702Z,96701.72
2022-09-10T07:19:13.208Z,96698.94
2022-09-10T07:21:39.818Z,96695.06
2022-09-10T07:24:06.435Z,96706.63
2022-09-10T07:26:33.289Z,96701.66
2022-09-10T07:28:59.942Z,96698.13
2022-09-10T07:31:32.243Z,96707.75
2022-09-10T07:33:58.798Z,96708.41
2022-09-10T07:36:25.542Z,96699.44
2022-09-10T07:39:01.957Z,96703.09
2022-09-10T07:41:29.850Z,96705.53
2022-09-10T07:43:56.875Z,96698.66
2022-09-10T07:46:25.582Z,96704.28
2022-09-10T07:48:59.261Z,96708.88
2022-09-10T07:51:27.422Z,96712.59
2022-09-10T07:53:55.274Z,96718.44
2022-09-10T07:56:23.293Z,96724.22
2022-09-10T07:58:49.939Z,96731.41
2022-09-10T08:01:16.586Z,96723.09
2022-09-10T08:03:43.195Z,96732.34
2022-09-10T08:06:10.080Z,96721.38
2022-09-10T08:08:38.871Z,96729.03
2022-09-10T08:11:11.738Z,96732.78
2022-09-10T08:13:45.378Z,96731.94
2022-09-10T08:16:14.772Z,96733.53
2022-09-10T08:18:43.102Z,96735.13
2022-09-10T08:21:09.718Z,96735.31
2022-09-10T08:23:37.093Z,96744.31
2022-09-10T08:26:05.317Z,96743.81
2022-09-10T08:28:32.562Z,96743.09
2022-09-10T08:31:07.775Z,96750.84
2022-09-10T08:33:36.051Z,96746.22
2022-09-10T08:36:03.507Z,96747.16
2022-09-10T08:38:32.832Z,96753.16
2022-09-10T08:41:01.249Z,96745.41
2022-09-10T08:43:53.982Z,96747.97
2022-09-10T08:46:29.435Z,96751.66
2022-09-10T08:49:12.355Z,96742.63
2022-09-10T08:51:44.483Z,96753.72
2022-09-10T08:54:21.484Z,96744.44
2022-09-10T08:56:48.734Z,96757.13
2022-09-10T08:59:22.364Z,96754.31
2022-09-10T09:01:56.700Z,96763.66
2022-09-10T09:04:41.447Z,96758.31
2022-09-10T09:07:16.969Z,96762.47
2022-09-10T09:09:43.504Z,96761.13
2022-09-10T09:12:28.772Z,96767.63
2022-09-10T09:15:11.271Z,96763.56
2022-09-10T09:18:01.466Z,96758.38
2022-09-10T09:20:41.672Z,96770.31
2022-09-10T09:23:32.977Z,96777.25
2022-09-10T09:26:04.749Z,96774.59
2022-09-10T09:28:36.644Z,96769.28
2022-09-10T09:31:17.309Z,96768.88
2022-09-10T09:33:45.420Z,96761.47
2022-09-10T09:36:17.829Z,96760.31
2022-09-10T09:38:48.875Z,96757.75
2022-09-10T09:41:25.520Z,96757.97
2022-09-10T09:44:19.554Z,96758.63
2022-09-10T09:46:46.094Z,96750.78
2022-09-10T09:49:16.626Z,96749.41
2022-09-10T09:51:47.703Z,96753.03
2022-09-10T09:57:19.560Z,96749.09
2022-09-10T09:59:48.416Z,96763.84
2022-09-10T10:02:20.152Z,96759.72
2022-09-10T10:05:13.225Z,96762.66
2022-09-10T10:07:39.766Z,96761.03
2022-09-10T10:10:10.089Z,96765.22
2022-09-10T10:12:41.296Z,96754.44
2022-09-10T10:15:54.198Z,96761.41
2022-09-10T10:18:29.392Z,96755.44
2022-09-10T10:21:16.031Z,96763.03
2022-09-10T10:23:43.635Z,96750.41
2022-09-10T10:26:21.232Z,96761.19
2022-09-10T10:29:07.955Z,96758.19
2022-09-10T10:31:42.572Z,96744.19
2022-09-10T10:34:15.251Z,96754.88
2022-09-10T10:37:00.203Z,96741.94
2022-09-10T10:40:01.150Z,96747.16
2022-09-10T10:42:33.672Z,96745.44
2022-09-10T10:45:10.689Z,96749.81
2022-09-10T10:48:04.601Z,96741.34
2022-09-10T10:50:40.549Z,96753.19
2022-09-10T10:53:12.955Z,96745.75
2022-09-10T10:55:45.625Z,96748.31
2022-09-10T10:58:24.119Z,96737.25
2022-09-10T11:01:02.569Z,96740.81
2022-09-10T11:03:37.412Z,96746.16
2022-09-10T11:06:08.302Z,96736.38
2022-09-10T11:08:59.343Z,96727.13
2022-09-10T11:11:37.509Z,96731.94
2022-09-10T11:14:42.492Z,96724.25
2022-09-10T11:17:13.696Z,96731.97
2022-09-10T11:20:00.589Z,96723.59
2022-09-10T11:22:40.282Z,96724.47
2022-09-10T11:25:16.695Z,96727.00
2022-09-10T11:27:49.136Z,96729.34
2022-09-10T11:30:17.028Z,96722.09
2022-09-10T11:32:51.311Z,96723.72
2022-09-10T11:35:26.954Z,96722.50
2022-09-10T11:38:18.560Z,96720.13
2022-09-10T11:41:22.370Z,96731.34
2022-09-10T11:44:07.337Z,96725.44
2022-09-10T11:46:43.342Z,96733.63
2022-09-10T11:49:42.468Z,96733.03
2022-09-10T11:52:11.405Z,96721.25
2022-09-10T11:54:39.013Z,96731.41
2022-09-10T11:57:22.099Z,96723.44
2022-09-10T12:00:15.788Z,96709.88
2022-09-10T12:03:05.316Z,96724.47
2022-09-10T12:06:02.089Z,96726.50
2022-09-10T12:09:06.401Z,96726.44
2022-09-10T12:11:47.975Z,96714.22
2022-09-10T12:14:16.762Z,96712.59
2022-09-10T12:16:57.350Z,96712.53
2022-09-10T12:19:30.402Z,96719.22
2022-09-10T12:22:09.331Z,96714.41
2022-09-10T12:24:38.275Z,96713.97
2022-09-10T12:27:06.302Z,96712.66
2022-09-10T12:29:37.741Z,96707.63
2022-09-10T12:32:19.491Z,96710.91
2022-09-10T12:34:48.450Z,96697.16
2022-09-10T12:37:28.186Z,96698.88
2022-09-10T12:40:25.812Z,96706.41
2022-09-10T12:42:56.957Z,96708.78
2022-09-10T12:46:00.951Z,96707.22
2022-09-10T12:48:27.699Z,96708.69
2022-09-10T12:50:57.991Z,96711.06
2022-09-10T12:53:43.931Z,96718.00
2022-09-10T12:56:18.316Z,96716.22
2022-09-10T12:59:06.958Z,96718.22
2022-09-10T13:01:43.280Z,96723.59
2022-09-10T13:04:26.044Z,96727.59
2022-09-10T13:06:56.915Z,96708.63
2022-09-10T13:09:29.891Z,96716.44
2022-09-10T13:11:58.792Z,96718.59
2022-09-10T13:14:32.385Z,96712.50
2022-09-10T13:16:58.950Z,96715.09
2022-09-10T13:19:25.420Z,96721.22
2022-09-10T13:21:54.362Z,96720.56
2022-09-10T13:24:59.817Z,96718.03
2022-09-10T13:27:37.896Z,96715.25
2022-09-10T13:30:21.916Z,96716.16
2022-09-10T13:32:49.972Z,96718.72
2022-09-10T13:35:23.227Z,96714.16
2022-09-10T13:38:14.030Z,96710.91
2022-09-10T13:41:18.727Z,96706.13
2022-09-10T13:44:20.417Z,96710.16
2022-09-10T13:46:47.256Z,96709.94
2022-09-10T13:49:16.742Z,96712.03
2022-09-10T13:51:54.556Z,96713.69
2022-09-10T13:54:31.164Z,96715.47
2022-09-10T13:57:03.856Z,96712.25
2022-09-10T13:59:33.289Z,96707.22
2022-09-10T14:01:59.936Z,96712.47
2022-09-10T14:04:35.525Z,96700.84
2022-09-10T14:07:17.536Z,96698.06
2022-09-10T14:09:48.609Z,96700.22
2022-09-10T14:12:16.088Z,96696.69
2022-09-10T14:14:45.259Z,96700.56
2022-09-10T14:17:21.360Z,96699.53
2022-09-10T14:19:57.911Z,96701.16
2022-09-10T14:22:26.405Z,96706.16
2022-09-10T14:24:57.282Z,96708.25
2022-09-10T14:27:31.201Z,96701.66
2022-09-10T14:30:26.463Z,96695.81
2022-09-10T14:32:53.427Z,96699.16
2022-09-10T14:35:44.940Z,96700.03
2022-09-10T14:38:25.446Z,96695.06
2022-09-10T14:41:08.117Z,96692.25
2022-09-10T14:43:40.481Z,96697.00
2022-09-10T14:46:09.161Z,96704.13
2022-09-10T14:48:37.586Z,96693.44
2022-09-10T14:51:13.315Z,96693.97
2022-09-10T14:53:41.350Z,96700.56
2022-09-10T14:56:30.341Z,96700.53
2022-09-10T14:58:59.502Z,96686.13
2022-09-10T15:01:26.489Z,96688.84
2022-09-10T15:03:53.331Z,96695.09
2022-09-10T15:06:23.019Z,96697.19
2022-09-10T15:08:52.855Z,96692.31
2022-09-10T15:11:22.072Z,96696.66
2022-09-10T15:13:49.479Z,96698.72
2022-09-10T15:16:16.131Z,96694.59
2022-09-10T15:18:42.768Z,96696.31
2022-09-10T15:21:13.007Z,96698.59
2022-09-10T15:23:39.679Z,96697.53
2022-09-10T15:26:07.121Z,96698.63
2022-09-10T15:28:33.857Z,96702.94
2022-09-10T15:31:01.230Z,96703.53
2022-09-10T15:33:28.590Z,96700.63
2022-09-10T15:35:55.207Z,96709.09
2022-09-10T15:38:21.905Z,96707.78
2022-09-10T15:40:53.305Z,96701.19
2022-09-10T15:43:20.103Z,96712.66
2022-09-10T15:45:47.638Z,96708.25
2022-09-10T15:48:14.244Z,96698.66
2022-09-10T15:50:43.256Z,96705.97
2022-09-10T15:53:12.033Z,96705.19
2022-09-10T15:55:39.260Z,96704.81
2022-09-10T15:58:06.351Z,96695.34
2022-09-10T16:00:34.309Z,96691.78
2022-09-10T16:03:00.955Z,96694.44
2022-09-10T16:05:28.636Z,96698.13
2022-09-10T16:07:55.212Z,96688.06
2022-09-10T16:10:21.731Z,96691.88
2022-09-10T16:12:48.533Z,96686.97
2022-09-10T16:15:15.450Z,96690.88
2022-09-10T16:17:42.246Z,96698.94
2022-09-10T16:20:09.859Z,96690.13
2022-09-10T16:22:36.891Z,96688.22
2022-09-10T16:25:08.173Z,96698.50
2022-09-10T16:27:34.915Z,96700.56
2022-09-10T16:30:01.476Z,96704.56
2022-09-10T16:32:28.795Z,96706.78
2022-09-10T16:34:55.757Z,96706.78
2022-09-10T16:37:23.424Z,96710.47
2022-09-10T16:39:50.014Z,96707.63
2022-09-10T16:42:17.263Z,96705.22
2022-09-10T16:44:43.773Z,96713.78
2022-09-10T16:47:10.313Z,96708.69
2022-09-10T16:49:36.849Z,96707.06
2022-09-10T16:52:03.461Z,96712.16
2022-09-10T16:54:31.913Z,96714.44
2022-09-10T16:56:58.815Z,96718.72
2022-09-10T16:59:25.831Z,96718.38
2022-09-10T17:01:53.284Z,96728.00
2022-09-10T17:04:26.320Z,96730.31
2022-09-10T17:06:55.621Z,96730.31
2022-09-10T17:09:22.646Z,96737.00
2022-09-10T17:11:49.390Z,96744.16
2022-09-10T17:14:15.922Z,96739.09
2022-09-10T17:16:43.521Z,96743.22
2022-09-10T17:19:23.446Z,96741.81
2022-09-10T17:21:51.727Z,96739.63
2022-09-10T17:24:20.968Z,96739.25
2022-09-10T17:26:47.587Z,96739.66
2022-09-10T17:29:18.946Z,96741.50
2022-09-10T17:31:48.839Z,96745.59
2022-09-10T17:34:16.325Z,96747.63
2022-09-10T17:36:45.293Z,96754.56
2022-09-10T17:39:12.051Z,96753.38
2022-09-10T17:41:39.625Z,96759.59
2022-09-10T17:44:06.887Z,96762.03
2022-09-10T17:46:35.393Z,96769.03
2022-09-10T17:49:02.105Z,96771.50
2022-09-10T17:51:30.699Z,96774.59
2022-09-10T17:53:57.493Z,96763.84
2022-09-10T17:56:25.937Z,96772.25
2022-09-10T17:59:01.679Z,96768.81
2022-09-10T18:01:37.772Z,96781.06
2022-09-10T18:04:08.891Z,96784.75
2022-09-10T18:06:36.406Z,96782.31
2022-09-10T18:09:03.660Z,96784.00
2022-09-10T18:11:33.201Z,96792.97
2022-09-10T18:14:00.467Z,96788.13
2022-09-10T18:16:29.745Z,96780.41
2022-09-10T18:19:08.166Z,96789.84
2022-09-10T18:21:38.136Z,96787.25
2022-09-10T18:24:23.661Z,96793.78
2022-09-10T18:26:53.276Z,96800.13
2022-09-10T18:29:21.941Z,96796.88
2022-09-10T18:31:51.468Z,96808.69
2022-09-10T18:34:27.671Z,96813.53
2022-09-10T18:36:59.526Z,96826.97
2022-09-10T18:39:27.663Z,96823.72
2022-09-10T18:41:54.847Z,96838.81
2022-09-10T18:44:27.513Z,96832.13
2022-09-10T18:46:54.233Z,96836.84
2022-09-10T18:49:23.390Z,96833.22
2022-09-10T18:51:52.105Z,96847.88
2022-09-10T18:54:19.193Z,96859.31
2022-09-10T18:56:48.070Z,96853.56
2022-09-10T18:59:17.041Z,96863.78
2022-09-10T19:01:45.621Z,96871.31
2022-09-10T19:04:14.668Z,96859.44
2022-09-10T19:06:43.452Z,96876.78
2022-09-10T19:09:12.415Z,96869.84
2022-09-10T19:11:41.201Z,96871.03
2022-09-10T19:14:17.967Z,96872.06
2022-09-10T19:16:46.766Z,96875.50
2022-09-10T19:19:20.724Z,96877.72
2022-09-10T19:21:49.619Z,96885.09
2022-09-10T19:24:17.168Z,96888.56
2022-09-10T19:26:44.184Z,96888.78
2022-09-10T19:29:12.764Z,96901.19
2022-09-10T19:31:41.001Z,96904.88
2022-09-10T19:34:08.300Z,96900.59
2022-09-10T19:36:35.866Z,96902.03
2022-09-10T19:39:08.920Z,96901.63
2022-09-10T19:41:39.028Z,96909.19
2022-09-10T19:44:07.240Z,96912.25
2022-09-10T19:46:36.539Z,96919.59
2022-09-10T19:49:06.095Z,96919.19
2022-09-10T19:51:35.568Z,96914.69
2022-09-10T19:54:02.489Z,96931.81
2022-09-10T19:56:34.406Z,96935.06
2022-09-10T19:59:02.636Z,96933.44
2022-09-10T20:01:31.446Z,96939.56
2022-09-10T20:04:01.056Z,96939.56
2022-09-10T20:06:29.971Z,96937.56
2022-09-10T20:08:57.119Z,96945.09
2022-09-10T20:11:32.317Z,96948.56
2022-09-10T20:14:01.353Z,96944.09
2022-09-10T20:16:28.388Z,96948.41
2022-09-10T20:18:55.027Z,96945.16
2022-09-10T20:21:28.293Z,96947.00
2022-09-10T20:23:56.388Z,96953.31
2022-09-10T20:26:24.357Z,96960.09
2022-09-10T20:28:53.657Z,96960.47
2022-09-10T20:31:21.135Z,96969.47
2022-09-10T20:33:49.280Z,96967.41
2022-09-10T20:36:17.087Z,96970.06
2022-09-10T20:38:44.571Z,96957.81
2022-09-10T20:41:14.393Z,96964.53
2022-09-10T20:43:41.043Z,96969.03
2022-09-10T20:46:16.050Z,96974.72
2022-09-10T20:48:48.850Z,96982.47
2022-09-10T20:51:17.814Z,96977.16
2022-09-10T20:53:44.647Z,96981.22
2022-09-10T20:56:21.887Z,96994.91
2022-09-10T20:58:48.433Z,96988.56
2022-09-10T21:01:18.887Z,96994.22
2022-09-10T21:03:46.987Z,96996.72
2022-09-10T21:06:15.523Z,97004.06
2022-09-10T21:08:42.636Z,97004.47
2022-09-10T21:11:15.206Z,96997.72
2022-09-10T21:13:47.429Z,97003.47
2022-09-10T21:16:17.125Z,97011.59
2022-09-10T21:18:52.106Z,97005.31
2022-09-10T21:21:22.823Z,97012.25
2022-09-10T21:23:57.771Z,97018.97
2022-09-10T21:26:29.035Z,97026.09
2022-09-10T21:28:56.394Z,97026.31
2022-09-10T21:31:23.605Z,97024.69
2022-09-10T21:33:50.358Z,97033.47
2022-09-10T21:36:20.856Z,97031.84
2022-09-10T21:38:55.992Z,97039.63
2022-09-10T21:41:31.749Z,97040.06
2022-09-10T21:43:59.869Z,97042.53
2022-09-10T21:46:27.431Z,97044.16
2022-09-10T21:48:53.997Z,97044.38
2022-09-10T21:51:21.176Z,97050.09
2022-09-10T21:53:48.396Z,97047.66
2022-09-10T21:56:16.623Z,97052.94
2022-09-10T21:58:44.615Z,97052.75
2022-09-10T22:01:15.490Z,97064.94
2022-09-10T22:03:42.178Z,97063.13
2022-09-10T22:06:14.119Z,97061.69
2022-09-10T22:08:45.695Z,97055.59
2022-09-10T22:11:14.881Z,97062.91
2022-09-10T22:13:43.045Z,97069.41
2022-09-10T22:16:12.512Z,97059.81
2022-09-10T22:18:39.813Z,97069.41
2022-09-10T22:21:06.761Z,97071.44
2022-09-10T22:23:36.059Z,97070.22
2022-09-10T22:26:11.235Z,97071.84
2022-09-10T22:28:38.407Z,97077.97
2022-09-10T22:31:29.278Z,97077.97
2022-09-10T22:34:01.609Z,97082.47
2022-09-10T22:36:31.579Z,97075.09
2022-09-10T22:38:59.543Z,97085.50
2022-09-10T22:41:27.151Z,97081.66
2022-09-10T22:43:54.236Z,97078.41
2022-09-10T22:46:21.348Z,97079.84
2022-09-10T22:48:47.934Z,97084.97
2022-09-10T22:51:17.976Z,97085.34
2022-09-10T22:53:45.298Z,97083.75
2022-09-10T22:56:13.539Z,97088.06
2022-09-10T22:58:41.010Z,97089.03
2022-09-10T23:01:13.911Z,97093.53
2022-09-10T23:03:41.567Z,97093.97
2022-09-10T23:06:11.897Z,97102.31
2022-09-10T23:08:40.281Z,97100.06
2022-09-10T23:11:11.282Z,97104.34
2022-09-10T23:13:38.428Z,97101.72
2022-09-10T23:16:28.963Z,97103.38
2022-09-10T23:18:57.400Z,97108.25
2022-09-10T23:21:25.911Z,97112.94
2022-09-10T23:23:54.703Z,97117.22
2022-09-10T23:26:21.827Z,97117.63
2022-09-10T23:28:48.506Z,97117.41
2022-09-10T23:31:17.370Z,97122.13
2022-09-10T23:33:46.700Z,97123.31
2022-09-10T23:36:13.759Z,97126.59
2022-09-10T23:38:41.535Z,97121.88
2022-09-10T23:41:08.753Z,97121.88
2022-09-10T23:43:35.611Z,97122.50
2022-09-10T23:46:02.201Z,97121.28
2022-09-10T23:48:29.661Z,97121.50
2022-09-10T23:50:57.116Z,97126.38
2022-09-10T23:53:25.301Z,97127.78
2022-09-10T23:55:52.200Z,97126.59
2022-09-10T23:58:19.932Z,97123.50
